createdAt,value
2018-09-21T00:00:50.534Z,981.838
2018-09-21T00:02:50.565Z,981.831
2018-09-21T00:04:49.895Z,981.837
2018-09-21T00:06:50.299Z,981.831
2018-09-21T00:08:50.276Z,981.808
2018-09-21T00:10:50.344Z,981.784
2018-09-21T00:12:50.304Z,981.771
2018-09-21T00:14:50.293Z,981.775
2018-09-21T00:16:50.445Z,981.785
2018-09-21T00:18:50.416Z,981.787
2018-09-21T00:20:50.465Z,981.793
2018-09-21T00:22:49.682Z,981.797
2018-09-21T00:24:49.619Z,981.789
2018-09-21T00:26:49.844Z,981.752
2018-09-21T00:28:49.881Z,981.743
2018-09-21T00:30:49.871Z,981.716
2018-09-21T00:32:49.833Z,981.708
2018-09-21T00:34:50.096Z,981.708
2018-09-21T00:36:50.226Z,981.708
2018-09-21T00:38:50.269Z,981.696
2018-09-21T00:40:50.229Z,981.686
2018-09-21T00:42:50.263Z,981.650
2018-09-21T00:44:50.265Z,981.635
2018-09-21T00:46:50.410Z,981.622
2018-09-21T00:48:50.499Z,981.611
2018-09-21T00:50:50.483Z,981.599
2018-09-21T00:52:50.515Z,981.582
2018-09-21T00:54:49.663Z,981.587
2018-09-21T00:56:49.838Z,981.591
2018-09-21T00:58:49.831Z,981.594
2018-09-21T01:00:49.850Z,981.614
2018-09-21T01:02:50.027Z,981.609
2018-09-21T01:04:50.267Z,981.602
2018-09-21T01:06:50.440Z,981.586
2018-09-21T01:08:50.464Z,981.548
2018-09-21T01:10:50.543Z,981.516
2018-09-21T01:12:50.610Z,981.477
2018-09-21T01:14:49.667Z,981.454
2018-09-21T01:16:49.886Z,981.436
2018-09-21T01:18:49.841Z,981.409
2018-09-21T01:20:49.922Z,981.397
2018-09-21T01:22:49.926Z,981.385
2018-09-21T01:24:49.891Z,981.382
2018-09-21T01:26:50.060Z,981.374
2018-09-21T01:28:50.094Z,981.342
2018-09-21T01:30:50.141Z,981.318
2018-09-21T01:32:50.315Z,981.308
2018-09-21T01:34:50.076Z,981.304
2018-09-21T01:36:50.226Z,981.301
2018-09-21T01:38:50.225Z,981.311
2018-09-21T01:40:50.311Z,981.315
2018-09-21T01:42:50.346Z,981.315
2018-09-21T01:44:50.517Z,981.304
2018-09-21T01:46:49.746Z,981.300
2018-09-21T01:48:49.826Z,981.296
2018-09-21T01:50:49.802Z,981.276
2018-09-21T01:52:49.961Z,981.260
2018-09-21T01:54:49.974Z,981.237
2018-09-21T01:56:50.151Z,981.226
2018-09-21T01:58:50.225Z,981.223
2018-09-21T02:00:50.220Z,981.235
2018-09-21T02:02:50.291Z,981.223
2018-09-21T02:04:50.567Z,981.196
2018-09-21T02:06:49.858Z,981.170
2018-09-21T02:08:49.901Z,981.142
2018-09-21T02:10:49.856Z,981.148
2018-09-21T02:12:49.809Z,981.165
2018-09-21T02:14:49.844Z,981.160
2018-09-21T02:16:49.964Z,981.143
2018-09-21T02:18:49.964Z,981.095
2018-09-21T02:20:50.150Z,981.084
2018-09-21T02:22:50.314Z,981.078
2018-09-21T02:24:50.279Z,981.062
2018-09-21T02:26:50.438Z,981.045
2018-09-21T02:28:50.326Z,981.023
2018-09-21T02:30:50.368Z,980.995
2018-09-21T02:32:50.392Z,980.985
2018-09-21T02:34:49.807Z,980.933
2018-09-21T02:36:49.966Z,980.906
2018-09-21T02:38:49.932Z,980.880
2018-09-21T02:40:49.943Z,980.852
2018-09-21T02:42:49.942Z,980.832
2018-09-21T02:44:49.933Z,980.810
2018-09-21T02:46:50.124Z,980.811
2018-09-21T02:48:50.539Z,980.802
2018-09-21T02:50:49.877Z,980.790
2018-09-21T02:52:49.897Z,980.771
2018-09-21T02:54:49.908Z,980.751
2018-09-21T02:56:50.050Z,980.738
2018-09-21T02:58:50.254Z,980.727
2018-09-21T03:00:51.058Z,980.685
2018-09-21T03:02:50.021Z,980.662
2018-09-21T03:04:50.421Z,980.647
2018-09-21T03:06:49.741Z,980.621
2018-09-21T03:08:49.764Z,980.580
2018-09-21T03:10:49.843Z,980.522
2018-09-21T03:12:49.880Z,980.492
2018-09-21T03:14:49.912Z,980.459
2018-09-21T03:16:50.082Z,980.424
2018-09-21T03:18:50.057Z,980.383
2018-09-21T03:20:49.990Z,980.340
2018-09-21T03:22:49.974Z,980.308
2018-09-21T03:24:49.932Z,980.275
2018-09-21T03:26:50.174Z,980.252
2018-09-21T03:28:50.093Z,980.240
2018-09-21T03:30:50.073Z,980.209
2018-09-21T03:32:50.064Z,980.194
2018-09-21T03:34:50.485Z,980.194
2018-09-21T03:36:50.073Z,980.161
2018-09-21T03:38:50.213Z,980.158
2018-09-21T03:40:50.227Z,980.142
2018-09-21T03:42:50.290Z,980.143
2018-09-21T03:44:50.247Z,980.119
2018-09-21T03:46:50.370Z,980.114
2018-09-21T03:48:50.503Z,980.107
2018-09-21T03:50:50.474Z,980.110
2018-09-21T03:52:50.621Z,980.116
2018-09-21T03:54:49.677Z,980.091
2018-09-21T03:56:49.899Z,980.063
2018-09-21T03:58:49.849Z,980.036
2018-09-21T04:00:49.863Z,979.999
2018-09-21T04:02:49.894Z,979.975
2018-09-21T04:04:50.172Z,979.950
2018-09-21T04:06:50.290Z,979.921
2018-09-21T04:08:50.336Z,979.899
2018-09-21T04:10:50.317Z,979.876
2018-09-21T04:12:50.283Z,979.843
2018-09-21T04:14:50.398Z,979.801
2018-09-21T04:16:50.579Z,979.784
2018-09-21T04:18:50.585Z,979.772
2018-09-21T04:20:49.664Z,979.730
2018-09-21T04:22:49.650Z,979.737
2018-09-21T04:24:49.652Z,979.737
2018-09-21T04:26:50.445Z,979.717
2018-09-21T04:28:50.384Z,979.711
2018-09-21T04:30:50.473Z,979.686
2018-09-21T04:32:50.525Z,979.683
2018-09-21T04:34:49.896Z,979.660
2018-09-21T04:36:50.103Z,979.648
2018-09-21T04:38:50.210Z,979.658
2018-09-21T04:40:50.200Z,979.661
2018-09-21T04:42:50.189Z,979.666
2018-09-21T04:44:50.217Z,979.691
2018-09-21T04:46:50.425Z,979.712
2018-09-21T04:48:50.389Z,979.736
2018-09-21T04:50:50.338Z,979.747
2018-09-21T04:52:50.299Z,979.754
2018-09-21T04:54:50.290Z,979.745
2018-09-21T04:56:50.585Z,979.762
2018-09-21T04:58:49.644Z,979.751
2018-09-21T05:00:49.745Z,979.746
2018-09-21T05:02:49.796Z,979.770
2018-09-21T05:04:50.335Z,979.789
2018-09-21T05:06:49.741Z,979.806
2018-09-21T05:08:49.867Z,979.835
2018-09-21T05:10:49.875Z,979.853
2018-09-21T05:12:49.910Z,979.853
2018-09-21T05:14:49.945Z,979.872
2018-09-21T05:16:50.119Z,979.857
2018-09-21T05:18:50.014Z,979.852
2018-09-21T05:20:50.019Z,979.859
2018-09-21T05:22:49.969Z,979.871
2018-09-21T05:24:49.967Z,979.866
2018-09-21T05:26:50.079Z,979.870
2018-09-21T05:28:50.070Z,979.864
2018-09-21T05:30:50.009Z,979.864
2018-09-21T05:32:50.007Z,979.868
2018-09-21T05:34:50.768Z,979.879
2018-09-21T05:36:50.074Z,979.867
2018-09-21T05:38:50.113Z,979.853
2018-09-21T05:40:50.059Z,979.825
2018-09-21T05:42:50.060Z,979.807
2018-09-21T05:44:50.095Z,979.809
2018-09-21T05:46:50.307Z,979.826
2018-09-21T05:48:50.290Z,979.830
2018-09-21T05:50:50.275Z,979.854
2018-09-21T05:52:50.248Z,979.869
2018-09-21T05:54:50.279Z,979.869
2018-09-21T05:56:50.419Z,979.840
2018-09-21T05:58:50.445Z,979.822
2018-09-21T06:00:50.449Z,979.786
2018-09-21T06:02:50.630Z,979.793
2018-09-21T06:04:50.178Z,979.803
2018-09-21T06:06:50.260Z,979.791
2018-09-21T06:08:50.216Z,979.765
2018-09-21T06:10:50.391Z,979.743
2018-09-21T06:12:50.427Z,979.772
2018-09-21T06:14:50.440Z,979.778
2018-09-21T06:16:49.793Z,979.740
2018-09-21T06:18:49.771Z,979.738
2018-09-21T06:20:49.893Z,979.737
2018-09-21T06:22:50.013Z,979.740
2018-09-21T06:24:50.168Z,979.770
2018-09-21T06:26:50.308Z,979.773
2018-09-21T06:28:50.246Z,979.773
2018-09-21T06:30:50.253Z,979.784
2018-09-21T06:32:50.279Z,979.789
2018-09-21T06:34:49.751Z,979.760
2018-09-21T06:36:49.978Z,979.737
2018-09-21T06:38:49.941Z,979.740
2018-09-21T06:40:49.945Z,979.740
2018-09-21T06:42:49.971Z,979.723
2018-09-21T06:44:49.951Z,979.680
2018-09-21T06:46:50.106Z,979.643
2018-09-21T06:48:50.083Z,979.621
2018-09-21T06:50:50.120Z,979.564
2018-09-21T06:52:50.123Z,979.533
2018-09-21T06:54:50.044Z,979.525
2018-09-21T06:56:50.188Z,979.512
2018-09-21T06:58:50.189Z,979.469
2018-09-21T07:00:50.208Z,979.469
2018-09-21T07:02:50.219Z,979.393
2018-09-21T07:04:50.524Z,979.368
2018-09-21T07:06:49.727Z,979.362
2018-09-21T07:08:49.656Z,979.362
2018-09-21T07:10:49.709Z,979.387
2018-09-21T07:12:49.767Z,979.362
2018-09-21T07:14:49.778Z,979.356
2018-09-21T07:16:49.952Z,979.356
2018-09-21T07:18:49.979Z,979.335
2018-09-21T07:20:50.076Z,979.297
2018-09-21T07:22:50.153Z,979.271
2018-09-21T07:24:50.185Z,979.244
2018-09-21T07:26:50.342Z,979.235
2018-09-21T07:28:50.369Z,979.211
2018-09-21T07:30:50.389Z,979.176
2018-09-21T07:32:50.502Z,979.160
2018-09-21T07:34:50.041Z,979.131
2018-09-21T07:36:50.139Z,979.145
2018-09-21T07:38:50.092Z,979.158
2018-09-21T07:40:50.315Z,979.156
2018-09-21T07:42:50.397Z,979.173
2018-09-21T07:44:50.560Z,979.177
2018-09-21T07:46:49.808Z,979.172
2018-09-21T07:48:50.127Z,979.172
2018-09-21T07:50:50.316Z,979.169
2018-09-21T07:52:50.260Z,979.190
2018-09-21T07:54:50.227Z,979.189
2018-09-21T07:56:50.636Z,979.183
2018-09-21T07:58:49.808Z,979.176
2018-09-21T08:00:49.876Z,979.152
2018-09-21T08:02:49.911Z,979.132
2018-09-21T08:04:49.999Z,979.112
2018-09-21T08:06:50.243Z,979.104
2018-09-21T08:08:50.304Z,979.091
2018-09-21T08:10:50.263Z,979.080
2018-09-21T08:12:50.525Z,979.098
2018-09-21T08:14:49.929Z,979.083
2018-09-21T08:16:50.057Z,979.073
2018-09-21T08:18:50.147Z,979.049
2018-09-21T08:20:50.201Z,979.022
2018-09-21T08:22:50.352Z,978.974
2018-09-21T08:24:50.398Z,978.910
2018-09-21T08:26:50.571Z,978.898
2018-09-21T08:28:50.527Z,978.848
2018-09-21T08:30:50.607Z,978.802
2018-09-21T08:32:49.632Z,978.739
2018-09-21T08:34:50.027Z,978.713
2018-09-21T08:36:50.413Z,978.700
2018-09-21T08:38:50.452Z,978.690
2018-09-21T08:40:50.463Z,978.675
2018-09-21T08:42:50.581Z,978.675
2018-09-21T08:44:49.656Z,978.720
2018-09-21T08:46:49.848Z,978.700
2018-09-21T08:48:49.872Z,978.682
2018-09-21T08:50:49.852Z,978.602
2018-09-21T08:52:49.893Z,978.597
2018-09-21T08:54:50.013Z,978.573
2018-09-21T08:56:50.598Z,978.588
2018-09-21T08:58:49.624Z,978.599
2018-09-21T09:00:49.683Z,978.599
2018-09-21T09:02:49.940Z,978.567
2018-09-21T09:04:50.204Z,978.567
2018-09-21T09:06:50.347Z,978.491
2018-09-21T09:08:50.546Z,978.473
2018-09-21T09:10:50.500Z,978.473
2018-09-21T09:12:50.527Z,978.394
2018-09-21T09:14:50.538Z,978.398
2018-09-21T09:16:49.889Z,978.403
2018-09-21T09:18:49.905Z,978.405
2018-09-21T09:20:49.903Z,978.384
2018-09-21T09:22:49.921Z,978.369
2018-09-21T09:24:50.051Z,978.329
2018-09-21T09:26:50.403Z,978.304
2018-09-21T09:28:50.415Z,978.291
2018-09-21T09:30:50.369Z,978.323
2018-09-21T09:32:50.468Z,978.325
2018-09-21T09:34:49.907Z,978.322
2018-09-21T09:36:50.249Z,978.322
2018-09-21T09:38:50.477Z,978.311
2018-09-21T09:40:50.543Z,978.293
2018-09-21T09:42:50.690Z,978.286
2018-09-21T09:44:49.839Z,978.240
2018-09-21T09:46:50.104Z,978.228
2018-09-21T09:48:50.942Z,978.192
2018-09-21T09:50:50.464Z,978.176
2018-09-21T09:52:50.453Z,978.107
2018-09-21T09:54:50.731Z,978.072
2018-09-21T09:56:49.644Z,978.043
2018-09-21T09:58:49.623Z,978.043
2018-09-21T10:00:49.730Z,977.976
2018-09-21T10:02:49.777Z,977.931
2018-09-21T10:04:50.206Z,977.908
2018-09-21T10:06:50.399Z,977.888
2018-09-21T10:08:50.455Z,977.844
2018-09-21T10:10:50.519Z,977.800
2018-09-21T10:12:49.612Z,977.790
2018-09-21T10:14:49.719Z,977.801
2018-09-21T10:16:50.026Z,977.771
2018-09-21T10:18:49.983Z,977.749
2018-09-21T10:20:50.497Z,977.627
2018-09-21T10:22:50.453Z,977.627
2018-09-21T10:24:50.426Z,977.587
2018-09-21T10:26:49.775Z,977.602
2018-09-21T10:28:51.048Z,977.558
2018-09-21T10:30:50.188Z,977.477
2018-09-21T10:32:50.238Z,977.454
2018-09-21T10:34:50.530Z,977.433
2018-09-21T10:36:49.927Z,977.395
2018-09-21T10:38:50.105Z,977.381
2018-09-21T10:40:50.232Z,977.345
2018-09-21T10:42:50.842Z,977.379
2018-09-21T10:44:49.976Z,977.387
2018-09-21T10:46:50.123Z,977.323
2018-09-21T10:48:50.187Z,977.344
2018-09-21T10:50:50.143Z,977.285
2018-09-21T10:52:50.495Z,977.285
2018-09-21T10:54:49.822Z,977.285
2018-09-21T10:56:50.014Z,977.300
2018-09-21T10:58:49.982Z,977.269
2018-09-21T11:00:49.979Z,977.228
2018-09-21T11:02:49.982Z,977.207
2018-09-21T11:04:50.512Z,977.209
2018-09-21T11:06:49.627Z,977.209
2018-09-21T11:08:49.615Z,977.172
2018-09-21T11:10:49.641Z,977.147
2018-09-21T11:12:49.632Z,977.064
2018-09-21T11:14:49.703Z,977.017
2018-09-21T11:16:49.878Z,976.997
2018-09-21T11:18:49.932Z,976.993
2018-09-21T11:20:50.094Z,976.997
2018-09-21T11:22:50.134Z,976.997
2018-09-21T11:24:50.139Z,976.969
2018-09-21T11:26:50.328Z,976.957
2018-09-21T11:28:50.373Z,976.905
2018-09-21T11:30:50.292Z,976.911
2018-09-21T11:32:50.256Z,976.866
2018-09-21T11:34:50.662Z,976.869
2018-09-21T11:36:49.952Z,976.873
2018-09-21T11:38:49.971Z,976.872
2018-09-21T11:40:50.258Z,976.869
2018-09-21T11:42:50.104Z,976.845
2018-09-21T11:44:50.032Z,976.802
2018-09-21T11:46:50.555Z,976.767
2018-09-21T11:48:49.725Z,976.736
2018-09-21T11:50:50.384Z,976.666
2018-09-21T11:52:50.304Z,976.653
2018-09-21T11:54:50.468Z,976.603
2018-09-21T11:56:49.655Z,976.642
2018-09-21T11:58:49.749Z,976.661
2018-09-21T12:00:49.831Z,976.643
2018-09-21T12:02:49.912Z,976.677
2018-09-21T12:04:50.574Z,976.674
2018-09-21T12:06:49.686Z,976.608
2018-09-21T12:08:50.335Z,976.624
2018-09-21T12:10:50.343Z,976.624
2018-09-21T12:12:50.357Z,976.641
2018-09-21T12:14:50.457Z,976.616
2018-09-21T12:16:49.705Z,976.610
2018-09-21T12:18:49.993Z,976.601
2018-09-21T12:20:49.919Z,976.534
2018-09-21T12:22:50.174Z,976.500
2018-09-21T12:24:50.528Z,976.465
2018-09-21T12:26:49.713Z,976.397
2018-09-21T12:28:49.744Z,976.374
2018-09-21T12:30:49.879Z,976.346
2018-09-21T12:32:50.155Z,976.353
2018-09-21T12:34:50.451Z,976.324
2018-09-21T12:36:50.617Z,976.264
2018-09-21T12:38:49.731Z,976.232
2018-09-21T12:40:49.866Z,976.230
2018-09-21T12:42:49.872Z,976.233
2018-09-21T12:44:49.875Z,976.229
2018-09-21T12:46:50.516Z,976.226
2018-09-21T12:48:49.805Z,976.219
2018-09-21T12:50:50.145Z,976.239
2018-09-21T12:52:50.278Z,976.233
2018-09-21T12:54:50.285Z,976.232
2018-09-21T12:56:49.651Z,976.238
2018-09-21T12:58:50.171Z,976.229
2018-09-21T13:00:50.607Z,976.253
2018-09-21T13:02:50.076Z,976.273
2018-09-21T13:04:50.577Z,976.271
2018-09-21T13:06:49.886Z,976.236
2018-09-21T13:08:50.230Z,976.184
2018-09-21T13:10:50.539Z,976.170
2018-09-21T13:12:50.473Z,976.155
2018-09-21T13:14:50.513Z,976.164
2018-09-21T13:16:49.643Z,976.114
2018-09-21T13:18:50.304Z,976.118
2018-09-21T13:20:50.450Z,976.167
2018-09-21T13:22:50.442Z,976.170
2018-09-21T13:24:49.927Z,976.148
2018-09-21T13:26:50.147Z,976.108
2018-09-21T13:28:50.479Z,976.026
2018-09-21T13:30:50.519Z,975.935
2018-09-21T13:32:50.517Z,975.908
2018-09-21T13:34:50.479Z,975.928
2018-09-21T13:36:49.706Z,975.928
2018-09-21T13:38:49.814Z,976.028
2018-09-21T13:40:49.769Z,976.103
2018-09-21T13:42:50.035Z,976.129
2018-09-21T13:44:50.068Z,976.164
2018-09-21T13:46:50.273Z,976.158
2018-09-21T13:48:50.380Z,976.152
2018-09-21T13:50:50.369Z,976.131
2018-09-21T13:52:50.448Z,976.100
2018-09-21T13:54:50.349Z,976.146
2018-09-21T13:56:50.430Z,976.143
2018-09-21T13:58:50.514Z,976.150
2018-09-21T14:00:50.544Z,976.190
2018-09-21T14:02:50.494Z,976.245
2018-09-21T14:04:49.813Z,976.261
2018-09-21T14:06:49.984Z,976.252
2018-09-21T14:08:49.982Z,976.187
2018-09-21T14:10:49.910Z,976.165
2018-09-21T14:12:49.917Z,976.145
2018-09-21T14:14:49.830Z,976.146
2018-09-21T14:16:49.831Z,976.147
2018-09-21T14:18:49.794Z,976.139
2018-09-21T14:20:49.982Z,976.135
2018-09-21T14:22:49.952Z,976.162
2018-09-21T14:24:49.945Z,976.168
2018-09-21T14:26:50.059Z,976.160
2018-09-21T14:28:50.107Z,976.157
2018-09-21T14:30:50.216Z,976.158
2018-09-21T14:32:50.203Z,976.210
2018-09-21T14:34:50.430Z,976.250
2018-09-21T14:36:49.818Z,976.260
2018-09-21T14:38:49.784Z,976.260
2018-09-21T14:40:49.763Z,976.343
2018-09-21T14:42:49.753Z,976.379
2018-09-21T14:44:49.776Z,976.378
2018-09-21T14:46:50.072Z,976.344
2018-09-21T14:48:50.053Z,976.299
2018-09-21T14:50:50.058Z,976.288
2018-09-21T14:52:50.073Z,976.291
2018-09-21T14:54:50.118Z,976.323
2018-09-21T14:56:50.298Z,976.335
2018-09-21T14:58:50.320Z,976.335
2018-09-21T15:00:50.290Z,976.278
2018-09-21T15:02:50.327Z,976.274
2018-09-21T15:04:50.527Z,976.286
2018-09-21T15:06:49.935Z,976.341
2018-09-21T15:08:50.002Z,976.301
2018-09-21T15:10:49.948Z,976.278
2018-09-21T15:12:49.923Z,976.322
2018-09-21T15:14:49.931Z,976.429
2018-09-21T15:16:50.127Z,976.371
2018-09-21T15:18:50.067Z,976.341
2018-09-21T15:20:50.042Z,976.345
2018-09-21T15:22:50.046Z,976.371
2018-09-21T15:24:49.944Z,976.390
2018-09-21T15:26:50.061Z,976.385
2018-09-21T15:28:50.119Z,976.338
2018-09-21T15:30:50.007Z,976.269
2018-09-21T15:32:50.109Z,976.222
2018-09-21T15:34:50.465Z,976.218
2018-09-21T15:36:49.614Z,976.224
2018-09-21T15:38:49.668Z,976.242
2018-09-21T15:40:49.661Z,976.255
2018-09-21T15:42:49.686Z,976.271
2018-09-21T15:44:49.707Z,976.300
2018-09-21T15:46:50.005Z,976.366
2018-09-21T15:48:50.001Z,976.421
2018-09-21T15:50:49.973Z,976.458
2018-09-21T15:52:50.249Z,976.523
2018-09-21T15:54:50.436Z,976.541
2018-09-21T15:56:49.765Z,976.605
2018-09-21T15:58:50.033Z,976.609
2018-09-21T16:00:50.310Z,976.665
2018-09-21T16:02:50.357Z,976.689
2018-09-21T16:04:49.644Z,976.696
2018-09-21T16:06:49.979Z,976.727
2018-09-21T16:08:50.047Z,976.785
2018-09-21T16:10:49.953Z,976.792
2018-09-21T16:12:50.097Z,976.799
2018-09-21T16:14:50.350Z,976.826
2018-09-21T16:16:50.591Z,976.848
2018-09-21T16:18:49.695Z,976.866
2018-09-21T16:20:49.745Z,977.045
2018-09-21T16:22:49.775Z,977.159
2018-09-21T16:24:49.806Z,977.583
2018-09-21T16:26:50.013Z,978.083
2018-09-21T16:28:49.929Z,978.281
2018-09-21T16:30:49.902Z,978.514
2018-09-21T16:32:50.035Z,978.616
2018-09-21T16:34:50.396Z,978.754
2018-09-21T16:36:50.594Z,978.887
2018-09-21T16:38:49.648Z,978.935
2018-09-21T16:40:49.617Z,978.980
2018-09-21T16:42:49.625Z,979.139
2018-09-21T16:44:49.977Z,979.243
2018-09-21T16:46:50.461Z,979.426
2018-09-21T16:48:50.447Z,979.581
2018-09-21T16:50:50.461Z,979.660
2018-09-21T16:52:49.659Z,979.732
2018-09-21T16:54:49.623Z,979.765
2018-09-21T16:56:49.791Z,979.866
2018-09-21T16:58:50.249Z,979.899
2018-09-21T17:00:50.527Z,980.008
2018-09-21T17:02:50.529Z,980.085
2018-09-21T17:04:50.410Z,980.349
2018-09-21T17:06:49.810Z,980.349
2018-09-21T17:08:49.795Z,980.691
2018-09-21T17:10:49.830Z,980.752
2018-09-21T17:12:49.829Z,980.906
2018-09-21T17:14:49.916Z,981.034
2018-09-21T17:16:50.016Z,981.079
2018-09-21T17:18:50.067Z,981.048
2018-09-21T17:20:50.020Z,981.103
2018-09-21T17:22:50.116Z,981.111
2018-09-21T17:24:50.079Z,981.092
2018-09-21T17:26:50.219Z,981.109
2018-09-21T17:28:50.175Z,981.072
2018-09-21T17:30:50.203Z,981.072
2018-09-21T17:32:50.208Z,980.989
2018-09-21T17:34:50.418Z,980.986
2018-09-21T17:36:50.729Z,981.065
2018-09-21T17:38:49.835Z,981.076
2018-09-21T17:40:49.759Z,981.161
2018-09-21T17:42:49.760Z,981.301
2018-09-21T17:44:49.761Z,981.343
2018-09-21T17:46:50.057Z,981.529
2018-09-21T17:48:50.061Z,981.591
2018-09-21T17:50:50.075Z,981.657
2018-09-21T17:52:50.045Z,981.884
2018-09-21T17:54:50.020Z,981.900
2018-09-21T17:56:50.195Z,981.762
2018-09-21T17:58:50.144Z,981.735
2018-09-21T18:00:50.439Z,981.810
2018-09-21T18:02:50.505Z,981.777
2018-09-21T18:04:49.957Z,981.797
2018-09-21T18:06:50.115Z,981.809
2018-09-21T18:08:50.235Z,981.823
2018-09-21T18:10:50.218Z,981.823
2018-09-21T18:12:50.255Z,981.957
2018-09-21T18:14:50.266Z,982.007
2018-09-21T18:16:50.419Z,982.076
2018-09-21T18:18:50.376Z,982.131
2018-09-21T18:20:50.387Z,982.284
2018-09-21T18:22:50.574Z,982.329
2018-09-21T18:24:49.682Z,982.305
2018-09-21T18:26:49.844Z,982.358
2018-09-21T18:28:49.852Z,982.448
2018-09-21T18:30:49.797Z,982.518
2018-09-21T18:32:49.913Z,982.518
2018-09-21T18:34:50.213Z,982.626
2018-09-21T18:36:50.386Z,982.653
2018-09-21T18:38:50.331Z,982.710
2018-09-21T18:40:50.359Z,982.726
2018-09-21T18:42:50.316Z,982.854
2018-09-21T18:44:50.876Z,982.891
2018-09-21T18:46:50.387Z,982.922
2018-09-21T18:48:50.567Z,983.108
2018-09-21T18:50:49.928Z,983.233
2018-09-21T18:52:50.075Z,983.332
2018-09-21T18:54:50.035Z,983.412
2018-09-21T18:56:50.309Z,983.477
2018-09-21T18:58:50.264Z,983.512
2018-09-21T19:00:50.273Z,983.526
2018-09-21T19:02:50.261Z,983.586
2018-09-21T19:04:49.626Z,983.669
2018-09-21T19:06:49.779Z,983.693
2018-09-21T19:08:49.807Z,983.710
2018-09-21T19:10:49.791Z,983.745
2018-09-21T19:12:49.901Z,983.752
2018-09-21T19:14:49.952Z,983.766
2018-09-21T19:16:50.148Z,983.770
2018-09-21T19:18:50.268Z,983.812
2018-09-21T19:20:50.343Z,983.782
2018-09-21T19:22:50.354Z,983.759
2018-09-21T19:24:50.434Z,983.740
2018-09-21T19:26:49.628Z,983.742
2018-09-21T19:28:49.684Z,983.754
2018-09-21T19:30:49.672Z,983.754
2018-09-21T19:32:49.848Z,983.786
2018-09-21T19:34:50.197Z,983.806
2018-09-21T19:36:50.299Z,983.850
2018-09-21T19:38:50.341Z,983.892
2018-09-21T19:40:50.292Z,983.909
2018-09-21T19:42:50.985Z,983.966
2018-09-21T19:44:50.694Z,984.023
2018-09-21T19:46:50.525Z,984.023
2018-09-21T19:48:49.839Z,984.117
2018-09-21T19:50:49.859Z,984.149
2018-09-21T19:52:49.973Z,984.197
2018-09-21T19:54:50.216Z,984.240
2018-09-21T19:56:49.958Z,984.239
2018-09-21T19:58:49.885Z,984.257
2018-09-21T20:00:49.854Z,984.270
2018-09-21T20:02:49.814Z,984.324
2018-09-21T20:04:50.403Z,984.360
2018-09-21T20:06:49.800Z,984.347
2018-09-21T20:08:49.773Z,984.350
2018-09-21T20:10:49.884Z,984.359
2018-09-21T20:12:49.906Z,984.373
2018-09-21T20:14:49.958Z,984.422
2018-09-21T20:16:50.119Z,984.445
2018-09-21T20:18:50.095Z,984.480
2018-09-21T20:20:50.039Z,984.541
2018-09-21T20:22:50.026Z,984.570
2018-09-21T20:24:50.009Z,984.601
2018-09-21T20:26:50.182Z,984.610
2018-09-21T20:28:50.155Z,984.645
2018-09-21T20:30:50.432Z,984.681
2018-09-21T20:32:49.884Z,984.742
2018-09-21T20:34:49.729Z,984.775
2018-09-21T20:36:49.857Z,984.839
2018-09-21T20:38:49.872Z,984.949
2018-09-21T20:40:49.908Z,984.978
2018-09-21T20:42:50.209Z,984.959
2018-09-21T20:44:50.642Z,984.959
2018-09-21T20:46:50.030Z,985.003
2018-09-21T20:48:49.988Z,985.013
2018-09-21T20:50:49.972Z,985.036
2018-09-21T20:52:49.924Z,985.067
2018-09-21T20:54:49.907Z,985.099
2018-09-21T20:56:50.095Z,985.111
2018-09-21T20:58:50.249Z,985.147
2018-09-21T21:00:50.426Z,985.152
2018-09-21T21:02:50.453Z,985.162
2018-09-21T21:04:49.985Z,985.193
2018-09-21T21:06:50.192Z,985.238
2018-09-21T21:08:50.217Z,985.310
2018-09-21T21:10:50.302Z,985.309
2018-09-21T21:12:50.299Z,985.263
2018-09-21T21:14:50.235Z,985.265
2018-09-21T21:16:50.418Z,985.309
2018-09-21T21:18:50.450Z,985.338
2018-09-21T21:20:50.457Z,985.392
2018-09-21T21:22:50.426Z,985.407
2018-09-21T21:24:50.382Z,985.459
2018-09-21T21:26:50.524Z,985.505
2018-09-21T21:28:49.695Z,985.505
2018-09-21T21:30:49.666Z,985.580
2018-09-21T21:32:49.775Z,985.560
2018-09-21T21:34:50.196Z,985.559
2018-09-21T21:36:50.366Z,985.550
2018-09-21T21:38:50.364Z,985.606
2018-09-21T21:40:50.348Z,985.606
2018-09-21T21:42:50.350Z,985.649
2018-09-21T21:44:50.339Z,985.679
2018-09-21T21:46:49.693Z,985.698
2018-09-21T21:48:49.684Z,985.729
2018-09-21T21:50:49.667Z,985.752
2018-09-21T21:52:49.768Z,985.789
2018-09-21T21:54:49.724Z,985.836
2018-09-21T21:56:50.077Z,985.856
2018-09-21T21:58:50.135Z,985.899
2018-09-21T22:00:50.124Z,985.909
2018-09-21T22:02:50.143Z,985.952
2018-09-21T22:04:50.494Z,985.952
2018-09-21T22:06:49.643Z,986.075
2018-09-21T22:08:49.643Z,986.103
2018-09-21T22:10:49.782Z,986.123
2018-09-21T22:12:49.814Z,986.141
2018-09-21T22:14:49.775Z,986.156
2018-09-21T22:16:50.140Z,986.156
2018-09-21T22:18:50.097Z,986.174
2018-09-21T22:20:50.110Z,986.185
2018-09-21T22:22:50.064Z,986.222
2018-09-21T22:24:50.101Z,986.212
2018-09-21T22:26:50.288Z,986.196
2018-09-21T22:28:50.255Z,986.190
2018-09-21T22:30:50.261Z,986.188
2018-09-21T22:32:50.291Z,986.184
2018-09-21T22:34:50.544Z,986.230
2018-09-21T22:36:49.831Z,986.225
2018-09-21T22:38:49.757Z,986.268
2018-09-21T22:40:49.783Z,986.270
2018-09-21T22:42:49.803Z,986.333
2018-09-21T22:44:50.057Z,986.373
2018-09-21T22:46:49.654Z,986.380
2018-09-21T22:48:49.616Z,986.437
2018-09-21T22:50:49.681Z,986.434
2018-09-21T22:52:49.824Z,986.423
2018-09-21T22:54:49.853Z,986.456
2018-09-21T22:56:50.058Z,986.438
2018-09-21T22:58:50.015Z,986.449
2018-09-21T23:00:50.007Z,986.467
2018-09-21T23:02:50.032Z,986.505
2018-09-21T23:04:50.337Z,986.510
2018-09-21T23:06:50.590Z,986.521
2018-09-21T23:08:50.558Z,986.524
2018-09-21T23:10:49.636Z,986.531
2018-09-21T23:12:49.801Z,986.517
2018-09-21T23:14:49.896Z,986.517
2018-09-21T23:16:50.052Z,986.568
2018-09-21T23:18:50.072Z,986.640
2018-09-21T23:20:50.054Z,986.675
2018-09-21T23:22:50.088Z,986.676
2018-09-21T23:24:49.997Z,986.658
2018-09-21T23:26:50.119Z,986.657
2018-09-21T23:28:50.086Z,986.668
2018-09-21T23:30:50.047Z,986.713
2018-09-21T23:32:50.066Z,986.753
2018-09-21T23:34:49.630Z,986.788
2018-09-21T23:36:49.888Z,986.808
2018-09-21T23:38:49.887Z,986.840
2018-09-21T23:40:49.863Z,986.838
2018-09-21T23:42:49.908Z,986.836
2018-09-21T23:44:50.016Z,986.832
2018-09-21T23:46:50.229Z,986.799
2018-09-21T23:48:50.232Z,986.816
2018-09-21T23:50:50.299Z,986.870
2018-09-21T23:52:50.347Z,986.917
2018-09-21T23:54:50.347Z,986.998
2018-09-21T23:56:50.619Z,987.025
2018-09-21T23:58:49.614Z,987.029
